Página principal
METAR-TAF:

METAR-TAF

Aeroportos :

Aeroporto Internacional Ben Gurion

Tel Aviv / Ben Gurion, Israel

latitude: 32-00N, longitude: 034-54E, altura: 40 m

Observação actual do tempo

O boletim foi feito há 34 minutos, às 21:20 UTC
Vento 1 kt com direcção variável
Temperatura 13°C
Humidade 28%
Pressão 1018 hPa
Visibilidade 10 km ou mais
sem nuvens abaixo de 1500 metros e sem cumulonimbus

METAR: LLBG 202120Z VRB01KT CAVOK 13/M05 Q1018 NOSIG

Hora: 23:54 (21:54 UTC)

Previsão

O boletim foi feito há 4 horas e 49 minutos, às 17:05 UTC
Previsão válida de 20 às 18 UTC a 21 às 18 UTC
Vento 5 kt de nordeste
Visibilidade 10 km ou mais
sem nuvens abaixo de 1500 metros e sem cumulonimbus
Temporariamente
de 20 às 20 UTC a 21 às 08 UTC
Vento 5 kt de es-sudeste
Tornando-se
de 21 às 08 UTC a 21 às 10 UTC
Vento 8 kt de oes-noroeste

TAF: LLBG 201705Z 2018/2118 04005KT CAVOK TEMPO 2020/2108 12005KT BECMG 2108/2110 30008KT TX25/2112Z TN11/2104Z

Observações e previsões do tempo de mais de 4000 aeroportos (mensagens METAR e TAF).

As estações disponíveis são os pontos amarelos e vermelhos sobre o mapa.

Mova o rato sobre o mapa para ver o nome da estação.

Depois clique no ponto para visualizar as observações e previsões meteorológicas.

Para alterar o mapa : clique nos botões verdes com uma cruz preta para aumentar o zoom; no botão verde com uma pitada de zoom; ou nas setas verdes para mapas adjacentes.


METAR-TAF: